Time;durP1;ratioP1;P1;durP2;ratioP2;P2;SDS_P1;SDS_P2;PMS_P1;PMS_P2;Temp;Humidity;BMP_temperature;BMP_pressure;BME280_temperature;BME280_humidity;BME280_pressure;Samples;Min_cycle;Max_cycle;Signal;HPM_P1;HPM_P2
2022/06/21 00:02:13;;;;;;;5.07;2.88;;;10.40;99.90;;;;;;5066770;28;20385;-62
2022/06/21 00:04:39;;;;;;;5.53;2.45;;;10.40;99.90;;;;;;5042043;28;20041;-62
2022/06/21 00:07:06;;;;;;;8.23;2.65;;;10.30;99.90;;;;;;5029235;28;20056;-62
2022/06/21 00:09:32;;;;;;;5.03;2.55;;;10.30;99.90;;;;;;5028763;28;20088;-62
2022/06/21 00:11:58;;;;;;;9.30;2.60;;;10.10;99.90;;;;;;5029535;28;20057;-62
2022/06/21 00:14:24;;;;;;;9.40;3.03;;;10.10;99.90;;;;;;5064174;28;20045;-62
2022/06/21 00:16:49;;;;;;;10.13;3.40;;;9.90;99.90;;;;;;5066918;28;20098;-62
2022/06/21 00:19:24;;;;;;;9.15;2.92;;;10.00;99.90;;;;;;5049385;28;20053;-62
2022/06/21 00:21:50;;;;;;;13.55;3.80;;;10.20;99.90;;;;;;5066965;28;20436;-62
2022/06/21 00:24:17;;;;;;;9.68;2.95;;;10.20;99.90;;;;;;5048920;28;20083;-62
2022/06/21 00:26:44;;;;;;;10.35;3.65;;;10.30;99.90;;;;;;5066935;28;20056;-62
2022/06/21 00:29:10;;;;;;;9.02;3.22;;;10.40;99.90;;;;;;5032810;28;20053;-62
2022/06/21 00:31:39;;;;;;;10.35;3.47;;;10.50;99.90;;;;;;5032827;28;20119;-62
2022/06/21 00:34:17;;;;;;;12.32;3.78;;;10.50;99.90;;;;;;5053988;28;20050;-62
2022/06/21 00:36:44;;;;;;;7.32;2.80;;;10.60;99.90;;;;;;5046397;28;20079;-62
2022/06/21 00:39:13;;;;;;;7.00;2.70;;;10.50;99.90;;;;;;5066110;28;20409;-62
2022/06/21 00:41:52;;;;;;;6.45;2.75;;;10.40;99.90;;;;;;5066792;28;20040;-62
2022/06/21 00:44:30;;;;;;;7.95;2.70;;;10.30;99.90;;;;;;5064241;28;20049;-62
2022/06/21 00:47:06;;;;;;;6.32;2.40;;;10.30;99.90;;;;;;5048125;28;20051;-62
2022/06/21 00:49:43;;;;;;;10.10;3.25;;;10.20;99.90;;;;;;5056554;28;20078;-62
2022/06/21 00:52:35;;;;;;;4.97;2.80;;;10.30;99.90;;;;;;5048040;28;20103;-62
2022/06/21 00:55:10;;;;;;;6.13;2.50;;;10.10;99.90;;;;;;5069799;28;20105;-62
2022/06/21 00:57:52;;;;;;;4.97;2.60;;;9.90;99.90;;;;;;5048946;28;20037;-62
2022/06/21 01:00:33;;;;;;;6.35;2.97;;;9.80;99.90;;;;;;5066783;28;20056;-62
2022/06/21 01:03:04;;;;;;;7.93;3.10;;;9.90;99.90;;;;;;5053403;28;20135;-62
2022/06/21 01:05:33;;;;;;;9.32;3.10;;;10.10;99.90;;;;;;5048646;28;20053;-62
2022/06/21 01:07:59;;;;;;;6.90;3.00;;;10.10;99.90;;;;;;5062881;28;20131;-62
2022/06/21 01:10:26;;;;;;;6.13;2.50;;;10.10;99.90;;;;;;5048606;28;20061;-62
2022/06/21 01:13:00;;;;;;;6.78;2.70;;;9.80;99.90;;;;;;5062027;28;20077;-62
2022/06/21 01:15:35;;;;;;;10.20;3.05;;;9.80;99.90;;;;;;5066043;28;20041;-62
2022/06/21 01:18:04;;;;;;;9.15;3.20;;;10.00;99.90;;;;;;5075485;28;20047;-62
2022/06/21 01:20:33;;;;;;;8.02;3.33;;;10.00;99.90;;;;;;5063745;28;20057;-62
2022/06/21 01:23:56;;;;;;;12.60;3.85;;;10.20;99.90;;;;;;5071720;28;20046;-61
2022/06/21 01:26:44;;;;;;;7.47;3.63;;;9.90;99.90;;;;;;5024549;28;20088;-62
2022/06/21 01:29:15;;;;;;;14.45;4.03;;;9.90;99.90;;;;;;5026793;28;20041;-62
2022/06/21 01:31:42;;;;;;;7.72;3.40;;;9.90;99.90;;;;;;5026890;28;20595;-62
2022/06/21 01:34:20;;;;;;;6.38;3.40;;;10.00;99.90;;;;;;5022464;28;20069;-62
2022/06/21 01:36:50;;;;;;;7.55;3.10;;;9.90;99.90;;;;;;5014803;28;20200;-62
2022/06/21 01:39:23;;;;;;;6.32;2.65;;;9.90;99.90;;;;;;5022768;28;20054;-62
2022/06/21 01:42:01;;;;;;;10.30;2.58;;;9.70;99.90;;;;;;5006812;28;20045;-62
2022/06/21 01:44:35;;;;;;;7.18;2.40;;;9.70;99.90;;;;;;5022643;28;20488;-62
2022/06/21 01:47:06;;;;;;;6.35;2.72;;;9.50;99.90;;;;;;5025485;28;20045;-62
2022/06/21 01:49:34;;;;;;;6.25;2.92;;;9.40;99.90;;;;;;5007527;28;20058;-62
2022/06/21 01:52:18;;;;;;;7.40;2.78;;;9.50;99.90;;;;;;5022876;28;20152;-62
2022/06/21 01:54:50;;;;;;;5.88;3.08;;;9.50;99.90;;;;;;5006747;28;20498;-62
2022/06/21 01:57:15;;;;;;;4.47;2.90;;;9.40;99.90;;;;;;5051431;28;20049;-62
2022/06/21 01:59:45;;;;;;;6.93;3.20;;;9.40;99.90;;;;;;5047895;28;20056;-62
2022/06/21 02:02:20;;;;;;;13.15;4.00;;;9.40;99.90;;;;;;5054561;28;20049;-62
2022/06/21 02:05:01;;;;;;;8.50;3.70;;;9.50;99.90;;;;;;5053143;28;20138;-62
2022/06/21 02:07:31;;;;;;;7.90;3.58;;;9.50;99.90;;;;;;5069501;28;20067;-62
2022/06/21 02:10:38;;;;;;;9.80;4.03;;;9.50;99.90;;;;;;5075517;28;20060;-62
2022/06/21 02:13:14;;;;;;;10.27;4.55;;;9.40;99.90;;;;;;5050930;28;20057;-62
2022/06/21 02:16:15;;;;;;;8.40;3.90;;;9.40;99.90;;;;;;5047980;28;20045;-62
2022/06/21 02:18:46;;;;;;;13.05;4.90;;;9.40;99.90;;;;;;5005558;28;20054;-62
2022/06/21 02:21:28;;;;;;;10.50;4.00;;;9.50;99.90;;;;;;5017937;28;20061;-62
2022/06/21 02:23:57;;;;;;;11.43;4.20;;;9.50;99.90;;;;;;5016087;28;20053;-62
2022/06/21 02:26:25;;;;;;;9.70;3.95;;;9.30;99.90;;;;;;5022790;28;20053;-62
2022/06/21 02:28:51;;;;;;;9.48;4.38;;;9.30;99.90;;;;;;5017533;28;20054;-62
2022/06/21 02:31:18;;;;;;;9.70;3.80;;;9.20;99.90;;;;;;5036654;28;20068;-62
2022/06/21 02:33:47;;;;;;;6.30;3.42;;;9.30;99.90;;;;;;5015394;28;20097;-62
2022/06/21 02:36:28;;;;;;;9.02;3.83;;;9.10;99.90;;;;;;5022645;28;20175;-62
2022/06/21 02:38:58;;;;;;;7.03;3.30;;;9.10;99.90;;;;;;5029954;28;20041;-62
2022/06/21 02:41:30;;;;;;;;;;;9.00;99.90;;;;;;5019165;28;20063;-62
2022/06/21 02:44:02;;;;;;;5.47;2.92;;;8.70;99.90;;;;;;5032745;28;19933;-62
2022/06/21 02:46:34;;;;;;;5.05;3.20;;;8.60;99.90;;;;;;5035732;28;20104;-61
2022/06/21 02:49:06;;;;;;;4.82;2.85;;;8.60;99.90;;;;;;5035669;28;20046;-61
2022/06/21 02:51:37;;;;;;;4.80;2.80;;;8.30;99.90;;;;;;5031522;28;20061;-62
2022/06/21 02:54:09;;;;;;;5.82;3.00;;;8.20;99.90;;;;;;5027332;28;20053;-62
2022/06/21 02:57:01;;;;;;;6.05;3.90;;;8.10;99.90;;;;;;5065221;28;20102;-62
2022/06/21 02:59:28;;;;;;;3.38;3.03;;;8.10;99.90;;;;;;5050173;28;20048;-62
2022/06/21 03:01:58;;;;;;;4.90;3.40;;;8.00;99.90;;;;;;5075062;28;20108;-62
2022/06/21 03:04:28;;;;;;;;;;;8.10;99.90;;;;;;5040020;28;20048;-62
2022/06/21 03:06:54;;;;;;;4.13;3.63;;;8.10;99.90;;;;;;5077084;28;19982;-62
2022/06/21 03:09:23;;;;;;;6.63;3.25;;;8.20;99.90;;;;;;5049649;28;20486;-62
2022/06/21 03:11:53;;;;;;;5.75;3.22;;;8.20;99.90;;;;;;5050164;28;20048;-62
2022/06/21 03:14:23;;;;;;;6.20;3.60;;;8.30;99.90;;;;;;5066858;28;20037;-62
2022/06/21 03:16:52;;;;;;;5.47;3.83;;;8.40;99.90;;;;;;5050464;28;20060;-62
2022/06/21 03:19:38;;;;;;;5.10;3.65;;;8.60;99.90;;;;;;5068493;28;20098;-62
2022/06/21 03:22:16;;;;;;;10.20;4.57;;;8.50;99.90;;;;;;5047936;28;20048;-62
2022/06/21 03:24:42;;;;;;;6.50;3.92;;;8.50;99.90;;;;;;5064582;28;20044;-62
2022/06/21 03:27:19;;;;;;;8.27;4.78;;;8.60;99.90;;;;;;5068426;28;20040;-62
2022/06/21 03:29:45;;;;;;;9.52;4.82;;;8.50;99.90;;;;;;5069596;28;20104;-62
2022/06/21 03:32:11;;;;;;;8.00;3.97;;;8.60;99.90;;;;;;5070513;28;20037;-62
2022/06/21 03:34:37;;;;;;;7.70;3.90;;;8.80;99.90;;;;;;5067827;28;20041;-62
2022/06/21 03:37:05;;;;;;;10.75;4.68;;;8.60;99.90;;;;;;5070590;28;20059;-61
2022/06/21 03:42:19;;;;;;;6.95;4.00;;;8.70;99.90;;;;;;5049812;28;20067;-62
2022/06/21 03:45:09;;;;;;;6.63;4.40;;;8.70;99.90;;;;;;5067206;28;20056;-62
2022/06/21 03:47:47;;;;;;;8.32;3.60;;;8.80;99.90;;;;;;5053965;28;20064;-62
2022/06/21 03:50:26;;;;;;;7.15;4.00;;;8.70;99.90;;;;;;5064693;28;20179;-62
2022/06/21 03:52:58;;;;;;;6.50;3.97;;;8.60;99.90;;;;;;5049892;28;20051;-62
2022/06/21 03:55:47;;;;;;;6.75;3.83;;;8.70;99.90;;;;;;5045765;28;20057;-62
2022/06/21 03:58:50;;;;;;;6.43;3.72;;;8.70;99.90;;;;;;5051592;28;20078;-62
2022/06/21 04:01:29;;;;;;;6.45;3.90;;;8.70;99.90;;;;;;5058049;28;20036;-62
2022/06/21 04:04:06;;;;;;;7.05;3.80;;;8.80;99.90;;;;;;5077331;28;20037;-62
2022/06/21 04:07:14;;;;;;;5.97;3.75;;;8.90;99.90;;;;;;5048768;28;20071;-62
2022/06/21 04:10:06;;;;;;;5.85;4.00;;;8.80;99.90;;;;;;5068519;28;20051;-61
2022/06/21 04:12:51;;;;;;;4.72;4.22;;;8.90;99.90;;;;;;5055930;28;20055;-62
2022/06/21 04:15:35;;;;;;;6.07;4.40;;;8.90;99.90;;;;;;5053663;28;20040;-61
2022/06/21 04:18:22;;;;;;;7.70;4.70;;;9.00;99.90;;;;;;5059373;28;20123;-62
2022/06/21 04:21:09;;;;;;;5.38;4.18;;;9.00;99.90;;;;;;5073940;28;20051;-62
2022/06/21 04:23:38;;;;;;;4.45;3.83;;;9.10;99.90;;;;;;5048506;28;20052;-62
2022/06/21 04:26:07;;;;;;;7.20;4.60;;;9.00;99.90;;;;;;5047850;28;20056;-62
2022/06/21 04:28:59;;;;;;;5.78;4.20;;;9.30;99.90;;;;;;5029962;28;20033;-62
2022/06/21 04:31:38;;;;;;;5.53;4.35;;;9.20;99.90;;;;;;5052092;28;20045;-61
2022/06/21 04:34:37;;;;;;;6.20;4.38;;;9.20;99.90;;;;;;5048759;28;20481;-61
2022/06/21 04:37:17;;;;;;;5.95;4.88;;;9.30;99.90;;;;;;5041323;28;20053;-62
2022/06/21 04:39:53;;;;;;;7.25;4.53;;;9.40;99.90;;;;;;5052033;28;20136;-62
2022/06/21 04:42:39;;;;;;;7.38;5.05;;;9.50;99.90;;;;;;5063139;28;20052;-62
2022/06/21 04:45:17;;;;;;;6.97;5.05;;;9.60;99.90;;;;;;5061266;28;20037;-62
2022/06/21 04:48:07;;;;;;;8.43;5.40;;;9.70;99.90;;;;;;5057350;28;20408;-62
2022/06/21 04:50:43;;;;;;;9.43;5.60;;;9.80;99.90;;;;;;5032582;28;20057;-62
2022/06/21 04:53:41;;;;;;;9.02;5.50;;;9.90;99.90;;;;;;5053226;28;20051;-61
2022/06/21 04:56:19;;;;;;;7.00;4.88;;;10.00;99.90;;;;;;4971677;28;20114;-62
2022/06/21 04:58:48;;;;;;;5.90;5.30;;;10.10;99.90;;;;;;4964244;28;20043;-61
2022/06/21 05:01:29;;;;;;;9.50;5.97;;;10.30;99.90;;;;;;4984749;28;20059;-62
2022/06/21 05:03:58;;;;;;;14.50;6.32;;;10.30;99.90;;;;;;4963686;28;20525;-62
2022/06/21 05:06:25;;;;;;;7.95;5.60;;;10.40;99.90;;;;;;4966461;28;20062;-62
2022/06/21 05:08:51;;;;;;;11.82;6.40;;;10.50;99.90;;;;;;4926382;29;20052;-62
2022/06/21 05:11:17;;;;;;;10.43;6.03;;;10.50;99.90;;;;;;4956889;29;20063;-65
2022/06/21 05:13:50;;;;;;;9.82;6.05;;;10.60;99.90;;;;;;4952529;29;20058;-65
2022/06/21 05:16:35;;;;;;;12.15;7.88;;;10.70;99.90;;;;;;4932283;28;20107;-62
2022/06/21 05:19:19;;;;;;;8.88;5.07;;;10.90;99.90;;;;;;4950510;28;20047;-64
2022/06/21 05:22:04;;;;;;;7.90;5.53;;;10.90;99.90;;;;;;4963317;28;20048;-65
2022/06/21 05:24:31;;;;;;;11.15;5.63;;;11.00;99.90;;;;;;4944216;28;20047;-65
2022/06/21 05:27:24;;;;;;;11.02;6.90;;;11.10;99.90;;;;;;4957695;29;20743;-64
2022/06/21 05:30:29;;;;;;;11.18;6.80;;;11.20;99.90;;;;;;4965034;28;20051;-65
2022/06/21 05:32:59;;;;;;;12.93;6.30;;;11.30;99.90;;;;;;4994342;28;20061;-66
2022/06/21 05:35:28;;;;;;;11.80;6.10;;;11.30;99.90;;;;;;5003139;28;20064;-64
2022/06/21 05:38:24;;;;;;;10.85;7.10;;;11.70;99.90;;;;;;5002089;28;20050;-64
2022/06/21 05:41:00;;;;;;;8.73;6.00;;;11.50;99.90;;;;;;4983733;28;20084;-64
2022/06/21 05:43:39;;;;;;;11.70;5.75;;;11.70;99.90;;;;;;4995310;28;20054;-64
2022/06/21 05:46:17;;;;;;;10.07;6.10;;;11.70;99.90;;;;;;5003053;28;20046;-64
2022/06/21 05:48:44;;;;;;;7.28;5.60;;;11.80;99.90;;;;;;4999944;28;20049;-63
2022/06/21 05:51:20;;;;;;;11.25;6.80;;;11.90;99.90;;;;;;5022403;28;20048;-63
2022/06/21 05:54:29;;;;;;;13.50;6.82;;;12.00;99.90;;;;;;5026272;28;20159;-64
2022/06/21 05:56:55;;;;;;;7.90;6.75;;;12.10;99.90;;;;;;4934357;29;20562;-64
2022/06/21 05:59:23;;;;;;;11.95;7.13;;;12.30;99.90;;;;;;4920329;29;20100;-63
2022/06/21 06:02:05;;;;;;;8.93;5.93;;;12.30;99.90;;;;;;4950809;29;20062;-63
2022/06/21 06:04:45;;;;;;;9.70;5.90;;;12.40;99.90;;;;;;4943958;29;20062;-62
2022/06/21 06:07:13;;;;;;;;;;;12.50;99.90;;;;;;4947191;28;20055;-62
2022/06/21 06:09:45;;;;;;;10.75;6.50;;;12.70;99.90;;;;;;4936345;28;20296;-62
2022/06/21 06:12:20;;;;;;;6.50;4.05;;;12.60;99.90;;;;;;4941952;28;20516;-65
2022/06/21 06:15:01;;;;;;;14.82;8.18;;;12.60;99.90;;;;;;4926137;28;20051;-65
2022/06/21 06:18:02;;;;;;;9.40;6.95;;;12.70;99.90;;;;;;4950102;29;20047;-62
2022/06/21 06:20:53;;;;;;;8.77;6.90;;;12.80;99.90;;;;;;4918019;29;20094;-61
2022/06/21 06:23:41;;;;;;;11.90;7.07;;;12.90;99.90;;;;;;4945841;28;20071;-63
2022/06/21 06:26:13;;;;;;;9.77;6.03;;;12.80;99.90;;;;;;4947420;28;20150;-62
2022/06/21 06:28:57;;;;;;;9.90;6.95;;;12.90;99.90;;;;;;4965017;28;20095;-62
2022/06/21 06:31:39;;;;;;;15.13;5.57;;;12.90;99.90;;;;;;4990470;28;20054;-62
2022/06/21 06:34:14;;;;;;;10.70;6.65;;;12.90;99.90;;;;;;4970858;28;20681;-62
2022/06/21 06:36:53;;;;;;;9.05;4.47;;;13.10;99.90;;;;;;4987028;28;20070;-62
2022/06/21 06:39:29;;;;;;;8.15;5.88;;;13.00;99.90;;;;;;4986095;28;20425;-62
2022/06/21 06:42:08;;;;;;;8.02;5.05;;;13.10;99.90;;;;;;4998050;28;20174;-62
2022/06/21 06:44:42;;;;;;;8.63;5.05;;;13.20;99.90;;;;;;4972815;28;20686;-62
2022/06/21 06:47:14;;;;;;;9.55;6.03;;;13.20;99.90;;;;;;4998902;28;20050;-61
2022/06/21 06:50:02;;;;;;;8.80;4.85;;;13.20;99.90;;;;;;4966859;28;20046;-62
2022/06/21 06:52:37;;;;;;;7.03;3.88;;;13.40;99.90;;;;;;4968968;28;20112;-62
2022/06/21 06:55:14;;;;;;;8.38;3.78;;;13.40;99.90;;;;;;4977999;28;20113;-62
2022/06/21 06:58:03;;;;;;;8.98;4.20;;;13.40;99.90;;;;;;5030237;28;20049;-62
2022/06/21 07:00:38;;;;;;;11.50;4.85;;;13.40;99.90;;;;;;5029235;28;20053;-62
2022/06/21 07:03:11;;;;;;;6.13;3.92;;;13.50;99.90;;;;;;5038597;28;20525;-62
2022/06/21 07:05:43;;;;;;;8.07;3.40;;;13.50;99.90;;;;;;5026284;28;20057;-62
2022/06/21 07:08:27;;;;;;;7.25;2.92;;;13.50;99.90;;;;;;5007464;28;20041;-62
2022/06/21 07:10:57;;;;;;;8.55;3.60;;;13.50;99.90;;;;;;5026878;28;20053;-62
2022/06/21 07:13:24;;;;;;;6.68;3.50;;;13.70;99.90;;;;;;5018458;28;20125;-62
2022/06/21 07:15:52;;;;;;;8.10;3.78;;;13.60;99.90;;;;;;5026930;28;20137;-62
2022/06/21 07:18:28;;;;;;;5.95;3.85;;;13.70;99.90;;;;;;5018314;28;20073;-63
2022/06/21 07:20:54;;;;;;;8.25;3.45;;;13.80;99.90;;;;;;5025081;28;20045;-63
2022/06/21 07:23:22;;;;;;;8.20;3.60;;;13.90;99.90;;;;;;5020830;28;20104;-62
2022/06/21 07:26:17;;;;;;;11.98;3.80;;;13.90;99.90;;;;;;5018215;28;20045;-62
2022/06/21 07:28:52;;;;;;;9.07;3.88;;;13.90;99.90;;;;;;5029975;28;20056;-62
2022/06/21 07:32:05;;;;;;;5.05;2.70;;;14.00;99.90;;;;;;5005986;28;20053;-62
2022/06/21 07:34:39;;;;;;;7.32;3.45;;;14.00;99.90;;;;;;5019785;28;20092;-62
2022/06/21 07:37:11;;;;;;;5.53;2.92;;;14.10;99.90;;;;;;5042322;28;20051;-62
2022/06/21 07:39:44;;;;;;;8.68;3.85;;;14.10;99.90;;;;;;5037689;28;20064;-62
2022/06/21 07:42:30;;;;;;;7.55;3.45;;;14.20;99.90;;;;;;5018824;28;20053;-62
2022/06/21 07:45:02;;;;;;;10.15;3.67;;;14.20;99.90;;;;;;5017171;28;20061;-62
2022/06/21 07:47:41;;;;;;;5.68;3.38;;;14.20;99.90;;;;;;5034813;28;20045;-62
2022/06/21 07:50:13;;;;;;;7.30;3.50;;;14.40;99.90;;;;;;5018208;28;20156;-62
2022/06/21 07:52:44;;;;;;;5.15;3.33;;;14.50;99.90;;;;;;5019060;28;20109;-61
2022/06/21 07:55:48;;;;;;;8.57;3.83;;;14.60;99.90;;;;;;5020621;28;20128;-62
2022/06/21 07:58:22;;;;;;;8.80;3.75;;;14.60;99.90;;;;;;5035520;28;20073;-62
2022/06/21 08:06:42;;;;;;;6.38;3.22;;;14.70;99.90;;;;;;5023803;28;19921;-63
2022/06/21 08:09:24;;;;;;;8.52;3.75;;;14.70;99.90;;;;;;5004860;28;20038;-61
2022/06/21 08:11:53;;;;;;;9.68;4.00;;;14.70;99.90;;;;;;4988599;28;20085;-62
2022/06/21 08:14:20;;;;;;;7.50;3.33;;;15.00;99.90;;;;;;5010691;28;20057;-62
2022/06/21 08:17:02;;;;;;;6.13;3.85;;;15.10;99.90;;;;;;5021064;28;20214;-61
2022/06/21 08:19:39;;;;;;;11.55;3.33;;;15.30;99.90;;;;;;5011558;28;20041;-62
2022/06/21 08:22:23;;;;;;;8.35;3.08;;;15.50;99.90;;;;;;5033804;28;20037;-62
2022/06/21 08:25:02;;;;;;;9.38;3.40;;;15.50;99.90;;;;;;5019437;28;20069;-62
2022/06/21 08:27:39;;;;;;;5.88;3.60;;;15.60;99.90;;;;;;5015981;28;20049;-61
2022/06/21 08:30:10;;;;;;;6.85;2.92;;;15.70;99.90;;;;;;5008996;28;20071;-62
2022/06/21 08:32:45;;;;;;;7.28;3.15;;;15.70;99.90;;;;;;5018919;28;20192;-62
2022/06/21 08:35:24;;;;;;;8.73;4.05;;;15.60;99.90;;;;;;5010923;28;20282;-61
2022/06/21 08:38:02;;;;;;;7.70;3.05;;;15.50;99.90;;;;;;5003262;28;20050;-62
2022/06/21 08:40:36;;;;;;;10.02;3.10;;;15.50;99.90;;;;;;4998880;28;20374;-62
2022/06/21 08:43:11;;;;;;;5.25;2.75;;;15.50;99.90;;;;;;5003006;28;20617;-63
2022/06/21 08:46:11;;;;;;;5.22;2.75;;;15.60;99.90;;;;;;5011675;28;20076;-61
2022/06/21 08:48:54;;;;;;;6.43;2.88;;;15.70;99.90;;;;;;5020628;28;20130;-61
2022/06/21 08:51:25;;;;;;;5.57;2.47;;;15.70;99.90;;;;;;5008187;28;20152;-61
2022/06/21 08:53:54;;;;;;;7.13;3.00;;;15.90;99.90;;;;;;5017947;28;20041;-61
2022/06/21 08:56:47;;;;;;;7.65;2.75;;;16.30;99.90;;;;;;5011606;28;20059;-61
2022/06/21 08:59:41;;;;;;;6.55;2.40;;;16.50;99.90;;;;;;5019522;28;20065;-61
2022/06/21 09:02:25;;;;;;;7.85;3.33;;;16.60;99.90;;;;;;4997853;28;20053;-61
2022/06/21 09:05:26;;;;;;;6.47;3.08;;;16.70;99.90;;;;;;5013718;28;20125;-62
2022/06/21 09:07:54;;;;;;;4.40;3.10;;;16.80;99.90;;;;;;5023423;28;20068;-61
2022/06/21 09:10:32;;;;;;;4.55;2.97;;;16.90;99.90;;;;;;5057237;28;20078;-61
2022/06/21 09:13:08;;;;;;;5.10;2.67;;;17.10;99.90;;;;;;5048854;28;20735;-61
2022/06/21 09:15:49;;;;;;;5.93;3.05;;;16.90;99.90;;;;;;5055905;28;20049;-61
2022/06/21 09:18:27;;;;;;;6.05;3.00;;;17.00;99.90;;;;;;5045077;28;20098;-61
2022/06/21 09:21:01;;;;;;;8.70;3.13;;;16.90;99.90;;;;;;5043179;28;20386;-61
2022/06/21 09:23:51;;;;;;;5.40;2.97;;;16.80;99.90;;;;;;5044686;28;20107;-61
2022/06/21 09:26:30;;;;;;;5.75;2.80;;;16.70;99.90;;;;;;5060921;28;20067;-61
2022/06/21 09:29:21;;;;;;;5.28;2.53;;;16.80;99.90;;;;;;5039652;28;20136;-61
2022/06/21 09:32:05;;;;;;;6.07;2.33;;;16.90;99.90;;;;;;5063858;28;20064;-61
2022/06/21 09:35:05;;;;;;;5.28;2.58;;;16.80;99.90;;;;;;5029661;28;20045;-61
2022/06/21 09:37:41;;;;;;;3.85;2.08;;;16.80;99.90;;;;;;5048802;28;20055;-61
2022/06/21 09:40:17;;;;;;;5.13;2.40;;;16.90;99.90;;;;;;5050548;28;20045;-61
2022/06/21 09:43:00;;;;;;;3.53;2.10;;;17.10;99.90;;;;;;5048620;28;20071;-61
2022/06/21 09:45:55;;;;;;;6.10;2.47;;;17.40;99.90;;;;;;5035926;28;20123;-61
2022/06/21 09:48:43;;;;;;;4.80;2.20;;;17.40;99.90;;;;;;5061194;28;20045;-62
2022/06/21 09:51:21;;;;;;;3.10;1.70;;;17.50;99.90;;;;;;5025401;28;20514;-61
2022/06/21 09:54:22;;;;;;;6.10;2.40;;;17.70;99.90;;;;;;5037036;28;20052;-62
2022/06/21 09:56:57;;;;;;;5.88;2.42;;;17.90;99.90;;;;;;5047010;28;20049;-61
2022/06/21 09:59:37;;;;;;;3.70;2.40;;;17.80;99.90;;;;;;5041129;28;20093;-61
2022/06/21 10:02:18;;;;;;;;;;;17.90;99.90;;;;;;4994811;28;20057;-64
2022/06/21 10:05:32;;;;;;;4.13;1.90;;;17.90;99.90;;;;;;5010717;28;19924;-62
2022/06/21 10:08:18;;;;;;;6.95;2.20;;;18.20;99.90;;;;;;4927541;28;20055;-62
2022/06/21 10:11:08;;;;;;;5.80;2.33;;;18.20;99.90;;;;;;4954728;28;20070;-61
2022/06/21 10:13:45;;;;;;;3.97;2.15;;;18.30;99.90;;;;;;4975323;28;20047;-61
2022/06/21 10:16:29;;;;;;;4.57;2.40;;;18.30;99.90;;;;;;4964646;28;20111;-62
2022/06/21 10:19:36;;;;;;;5.30;1.90;;;18.30;99.90;;;;;;4942244;28;20043;-61
2022/06/21 10:22:12;;;;;;;5.47;3.15;;;18.20;99.90;;;;;;4950486;28;20055;-61
2022/06/21 10:24:59;;;;;;;6.47;2.72;;;18.20;99.90;;;;;;4948078;28;20058;-62
2022/06/21 10:27:29;;;;;;;6.20;2.55;;;18.30;99.90;;;;;;4972940;28;20047;-61
2022/06/21 10:30:20;;;;;;;4.63;2.42;;;18.00;99.90;;;;;;4950426;28;20059;-61
2022/06/21 10:33:11;;;;;;;4.20;1.90;;;18.00;99.90;;;;;;4958766;28;20174;-61
2022/06/21 10:35:50;;;;;;;2.67;2.00;;;18.10;99.90;;;;;;4945893;28;20054;-65
2022/06/21 10:38:25;;;;;;;2.75;2.05;;;18.20;99.90;;;;;;4974634;28;20047;-62
2022/06/21 10:41:25;;;;;;;6.93;2.72;;;18.20;99.90;;;;;;4964331;28;20365;-62
2022/06/21 10:44:36;;;;;;;4.15;2.40;;;18.30;99.90;;;;;;5027076;28;20064;-62
2022/06/21 10:47:07;;;;;;;4.60;2.28;;;18.30;99.90;;;;;;5029313;28;20049;-62
2022/06/21 10:49:56;;;;;;;2.28;1.98;;;18.10;99.90;;;;;;5052116;28;20048;-62
2022/06/21 10:52:35;;;;;;;4.18;2.75;;;18.10;99.90;;;;;;5010061;28;20057;-62
2022/06/21 10:55:09;;;;;;;4.30;2.00;;;18.20;99.90;;;;;;5044344;28;20052;-62
2022/06/21 10:57:42;;;;;;;4.55;2.22;;;18.20;99.90;;;;;;5054778;28;20060;-61
2022/06/21 11:03:25;;;;;;;3.05;1.98;;;18.50;99.90;;;;;;5051912;28;20056;-62
2022/06/21 11:06:09;;;;;;;5.07;1.98;;;18.70;99.90;;;;;;5044351;28;20049;-61
2022/06/21 11:09:01;;;;;;;5.50;1.92;;;18.80;99.90;;;;;;5034688;28;20507;-62
2022/06/21 11:11:45;;;;;;;4.68;2.15;;;19.00;99.90;;;;;;5041995;28;20289;-61
2022/06/21 11:14:32;;;;;;;5.90;2.13;;;19.00;99.90;;;;;;5035071;28;20049;-62
2022/06/21 11:17:45;;;;;;;3.75;1.70;;;19.30;99.90;;;;;;5022552;28;20524;-62
2022/06/21 11:20:39;;;;;;;2.97;2.00;;;19.20;99.90;;;;;;4965705;28;20099;-62
2022/06/21 11:23:21;;;;;;;5.18;2.28;;;19.40;99.90;;;;;;4966422;28;20086;-62
2022/06/21 11:25:54;;;;;;;5.55;2.53;;;19.50;99.90;;;;;;4960661;28;20174;-62
2022/06/21 11:28:31;;;;;;;4.20;2.13;;;19.60;99.90;;;;;;4976202;28;20725;-62
2022/06/21 11:31:23;;;;;;;7.03;2.10;;;19.60;99.90;;;;;;4967131;28;20128;-62
2022/06/21 11:33:52;;;;;;;3.15;2.05;;;19.70;99.90;;;;;;4971465;28;20061;-62
2022/06/21 11:36:21;;;;;;;5.18;2.30;;;19.90;99.90;;;;;;4960633;28;20553;-62
2022/06/21 11:39:20;;;;;;;4.20;2.30;;;20.10;99.90;;;;;;4974885;28;20050;-62
2022/06/21 11:42:20;;;;;;;4.03;1.92;;;20.40;99.90;;;;;;4952833;28;20527;-64
2022/06/21 11:44:54;;;;;;;;;;;20.40;99.90;;;;;;4969887;28;20074;-62
2022/06/21 11:47:48;;;;;;;4.45;1.80;;;20.50;99.90;;;;;;4958134;28;19929;-62
2022/06/21 11:50:19;;;;;;;3.72;2.10;;;20.70;99.90;;;;;;4984492;28;20072;-62
2022/06/21 11:53:28;;;;;;;4.57;2.10;;;20.70;99.90;;;;;;5056095;28;20053;-62
2022/06/21 11:56:05;;;;;;;3.53;1.60;;;20.90;99.90;;;;;;5047693;28;20049;-62
2022/06/21 11:58:38;;;;;;;4.00;2.17;;;20.80;99.90;;;;;;5059059;28;20037;-62
2022/06/21 12:01:31;;;;;;;3.30;2.03;;;20.90;99.90;;;;;;5030437;28;20083;-62
2022/06/21 12:04:22;;;;;;;2.55;2.17;;;21.00;99.90;;;;;;5037631;28;20051;-62
2022/06/21 12:07:09;;;;;;;3.47;1.90;;;21.00;99.90;;;;;;5041830;28;20044;-64
2022/06/21 12:10:00;;;;;;;2.65;1.73;;;20.90;99.90;;;;;;5047199;28;20044;-62
2022/06/21 12:12:38;;;;;;;8.23;1.88;;;21.10;99.90;;;;;;5028515;28;20052;-62
2022/06/21 12:15:20;;;;;;;6.80;1.98;;;21.10;99.90;;;;;;5048311;28;20047;-62
2022/06/21 12:17:58;;;;;;;3.90;2.13;;;21.30;99.90;;;;;;5038881;28;20060;-62
2022/06/21 12:20:37;;;;;;;3.50;2.38;;;21.50;99.90;;;;;;5031502;28;20093;-62
2022/06/21 12:23:18;;;;;;;4.97;1.90;;;21.90;99.90;;;;;;5038040;28;20152;-62
2022/06/21 12:25:45;;;;;;;4.32;2.20;;;22.10;99.90;;;;;;5046701;28;20064;-62
2022/06/21 12:28:23;;;;;;;2.03;1.75;;;22.10;99.90;;;;;;5056064;28;20040;-63
2022/06/21 12:30:51;;;;;;;3.80;2.22;;;22.30;99.90;;;;;;5046152;28;20045;-63
2022/06/21 12:33:20;;;;;;;4.13;1.80;;;22.40;99.90;;;;;;5039513;28;20045;-63
2022/06/21 12:36:14;;;;;;;4.72;2.25;;;22.30;99.90;;;;;;5028966;28;20098;-63
2022/06/21 12:38:50;;;;;;;3.45;2.15;;;22.00;99.90;;;;;;5054935;28;20043;-63
2022/06/21 12:41:29;;;;;;;5.88;2.20;;;22.30;99.90;;;;;;5046256;28;20052;-63
2022/06/21 12:44:18;;;;;;;6.03;1.85;;;22.10;99.90;;;;;;5054213;28;20052;-63
2022/06/21 12:47:04;;;;;;;5.60;2.08;;;22.40;99.90;;;;;;5031497;28;20044;-63
2022/06/21 12:50:07;;;;;;;3.28;1.70;;;22.60;99.90;;;;;;5039766;28;20093;-63
2022/06/21 12:52:44;;;;;;;5.63;1.95;;;22.70;99.90;;;;;;5023221;28;20061;-63
2022/06/21 12:55:40;;;;;;;4.72;2.10;;;22.70;99.90;;;;;;5039561;28;20045;-63
2022/06/21 12:58:32;;;;;;;4.72;2.00;;;22.50;99.90;;;;;;5012945;28;20284;-63
2022/06/21 13:01:04;;;;;;;4.20;1.67;;;22.40;99.90;;;;;;5031742;28;20147;-63
2022/06/21 13:03:54;;;;;;;3.97;2.00;;;22.40;99.90;;;;;;5038677;28;20041;-63
2022/06/21 13:06:50;;;;;;;3.08;2.10;;;22.80;99.90;;;;;;5027836;28;20483;-63
2022/06/21 13:09:22;;;;;;;5.65;2.20;;;23.10;99.90;;;;;;5029831;28;20084;-63
2022/06/21 13:12:08;;;;;;;5.68;2.20;;;23.20;99.90;;;;;;5028997;28;20076;-63
2022/06/21 13:14:55;;;;;;;5.38;2.22;;;23.50;99.90;;;;;;5036440;28;20049;-63
2022/06/21 13:18:00;;;;;;;3.08;2.00;;;23.40;99.90;;;;;;5025359;28;20478;-63
2022/06/21 13:20:41;;;;;;;5.72;2.58;;;23.40;99.90;;;;;;5020286;28;20497;-63
2022/06/21 13:23:19;;;;;;;4.60;1.88;;;23.50;99.90;;;;;;5049993;28;20064;-63
2022/06/21 13:25:51;;;;;;;5.45;2.53;;;23.60;99.90;;;;;;5023980;28;20041;-63
2022/06/21 13:28:36;;;;;;;5.05;1.60;;;23.80;99.90;;;;;;5055857;28;20055;-63
2022/06/21 13:31:30;;;;;;;3.40;2.10;;;24.00;99.90;;;;;;5027816;28;20056;-63
2022/06/21 13:34:21;;;;;;;3.95;2.00;;;24.10;99.90;;;;;;5057349;28;20037;-63
2022/06/21 13:36:53;;;;;;;5.95;2.45;;;24.30;99.90;;;;;;5045450;28;20266;-63
2022/06/21 13:39:24;;;;;;;2.28;1.85;;;24.40;99.90;;;;;;5051670;28;20056;-63
2022/06/21 13:45:07;;;;;;;4.50;2.00;;;24.60;99.90;;;;;;5055198;28;20053;-63
2022/06/21 13:47:41;;;;;;;4.47;2.22;;;24.60;99.90;;;;;;5029775;28;20076;-64
2022/06/21 13:50:45;;;;;;;5.07;2.17;;;24.50;99.90;;;;;;5040394;28;20044;-63
2022/06/21 13:53:16;;;;;;;5.15;1.98;;;24.40;99.90;;;;;;4951411;28;20051;-64
2022/06/21 13:56:02;;;;;;;3.13;2.10;;;24.30;99.90;;;;;;4966084;28;20213;-63
2022/06/21 13:58:38;;;;;;;3.55;1.98;;;24.50;99.90;;;;;;4976508;28;20402;-64
2022/06/21 14:01:27;;;;;;;4.43;1.95;;;24.60;99.90;;;;;;4982405;28;20050;-63
2022/06/21 14:04:01;;;;;;;3.20;2.00;;;24.80;99.90;;;;;;4986272;28;20045;-63
2022/06/21 14:06:32;;;;;;;3.53;1.80;;;25.00;99.90;;;;;;4969530;28;20153;-63
2022/06/21 14:09:17;;;;;;;5.47;2.15;;;25.00;99.90;;;;;;4966933;28;20193;-64